Карточка аэропорта URSS

Внимание!
Информация на этой странице в стадии наполнения.
Если вы не увидели какой-то информации, или заметили неточность - пожалуйста сообщите нам!
Спасибо!
Команда RU-STAFF
Название аэропортаСочи
Название аэропорта (англ.)Sochi
Превышение89 ft. (27.1 m.)
Координаты43°26.634', 39°56.55'
Высота перехода13000 ft
Эшелон переходаQNH>=977hPa: FL150; QNH<977hPa: FL160
Коды ответчика1060-1077
Зона ОрВДРостов-на-Дону РПИ (URRV)
Данные METARURSS 251800Z 04003MPS 9999 NSC 07/M00 Q1023 R02/010070 R06/010070 NOSIG RMK R06/06004MPS QFE766
Проноз погоды (TAF)URSS 251656Z 2518/2618 04007MPS 9999 NSC BECMG 2607/2608 23003G08MPS BECMG 2610/2611 28004G09MPS BECMG 2615/2616 05003G08MPS
NOTAMshow/hide NOTAM
AWOS   TABLE

Информация о ВПП

ВПП Длина ВПП (м.) Покрытие Курс ВПП Частота ILS
022500Цементобетон22110.5
202500Цементобетон202 
062890Цементобетон58111.1
242890Цементобетон238 

Диспетчерские позиции

Позывной Наименование органа УВД Частота
URSS_DELСочи-Деливери132.700
URSS_APPСочи-Подход124.600
URSS_TWRСочи-Старт121.200
URSS_R_APPСочи-Круг119.700
URSS_GNDСочи-Руление119.000
URSS_FM1119.000



Спутниковое изображение